Résultat compétition

 ESF VALBERG-BEUIL : Flèche du 02/02/2014   picture_as_pdf

COUPE D'ARGENT U12 U14 DAMES

 Epreuve antérieure au 1er Décembre 2018, ne comptant plus pour le classement SkiOpen.

Ouvreur Handicap Temps Réalisé Temps Base
LENEL ROBIN 4.00 58.21 55.97
Médaille Or Vermeil Argent Bronze Fléchette
Pourcentage 15.00% 28.00% 40.00% 45.00% 50.00%
Temps 1:04.36 1:11.64 1:18.35 1:23.95 1:26.75
Clt.  expand_more Identité Code S. An Cat Temps Pts Médaille PDF Cor.
1 FIORETTI ANAIS FFS2628014 F 2000 BEN 1:00.43 7.97 Or picture_as_pdf edit
2 SENNES ALEXIA FFS2660309 F 2002 POU 1:00.49 8.08 Or picture_as_pdf edit
3 KOREN CELIA FFS2656381 F 2001 BEN 1:01.85 10.51 Or picture_as_pdf edit
4 MALARD DIANE FFS2651410 F 2000 BEN 1:02.12 10.99 Or picture_as_pdf edit
5 MARIN CARLA FFS2652206 F 2001 BEN 1:02.41 11.51 Or picture_as_pdf edit
6 SASSO CARLA FFS2649053 F 2000 BEN 1:02.42 11.52 Or picture_as_pdf edit
7 CALBET CHLOE FFS2660302 F 2002 POU 1:02.63 11.90 Or picture_as_pdf edit
8 GIRAUD LOMBARD ELIZA FFS2646460 F 2002 POU 1:02.74 12.10 Or picture_as_pdf edit
9 MALINELLI MANON FFS2651017 F 2000 BEN 1:03.68 13.78 Or picture_as_pdf edit
10 ROUX LISA FFS2660308 F 2001 BEN 1:04.00 14.35 Or picture_as_pdf edit
11 DELOURME LILOU FFS2669972 F 2003 POU 1:04.12 14.56 Or picture_as_pdf edit
12 FORTE JULIA FFS2643710 F 2000 BEN 1:04.71 15.62 Vermeil picture_as_pdf edit
13 MAZUEL LOLA FFS2670349 F 2003 POU 1:04.97 16.08 Vermeil picture_as_pdf edit
14 CAILLE EMILIE FFS2669845 F 2002 POU 1:05.04 16.21 Vermeil picture_as_pdf edit
15 NICOLETTA ELISE FFS2654694 F 2001 BEN 1:05.36 16.78 Vermeil picture_as_pdf edit
16 DAU FABIOLA FFS2670346 F 2003 POU 1:05.76 17.49 Vermeil picture_as_pdf edit
17 DEWAET MARGOT FFS2660299 F 2002 POU 1:07.60 20.78 Vermeil picture_as_pdf edit
18 CRISTIN CANDICE FFS2651459 F 2000 BEN 1:07.91 21.33 Vermeil picture_as_pdf edit
19 SUCHET CLOTILDE FFS2670352 F 2003 POU 1:08.48 22.35 Vermeil picture_as_pdf edit
20 BRUN LUNA FFS2663403 F 2002 POU 1:09.45 24.08 Vermeil picture_as_pdf edit
21 ESPECHE MATHILDE FFS2651615 F 2002 POU 1:09.91 24.91 Vermeil picture_as_pdf edit
22 HALLIFAX MARIE FFS2670324 F 2003 POU 1:10.36 25.71 Vermeil picture_as_pdf edit
23 BUGHIN JEANNE FFS2652326 F 2001 BEN 1:10.45 25.87 Vermeil picture_as_pdf edit
24 PARIS MAEVA FFS2660306 F 2002 POU 1:10.75 26.41 Vermeil picture_as_pdf edit
25 ISRAEL KIMBERLY FFS2654691 F 2001 BEN 1:12.53 29.59 Argent picture_as_pdf edit
CHATTON AUDREY FFS2659773 F 2001 BEN ABD picture_as_pdf edit
CERDAN LOLITA FFS2665227 F 2003 POU ABD picture_as_pdf edit
PRUD'HOMME MARGOT FFS2670325 F 2003 POU ABD picture_as_pdf edit
SASSI CAMILLE FFS2661635 F 2003 POU DSQ picture_as_pdf edit
STENWAGA SOPHIA FFS2670351 F 2003 POU DSQ picture_as_pdf edit
HEILMANN ENOLA FFS2667021 F 2003 POU DSQ picture_as_pdf edit
COMPORT CHIARA FFS2651947 F 2003 POU ABS picture_as_pdf edit
DELOURME LLUNA FFS2669995 F 2003 POU ABS picture_as_pdf edit
BOETTI LEA FFS2640511 F 2000 BEN ABS picture_as_pdf edit
NEGRI GIULIA FFS2660948 F 2001 BEN ABS picture_as_pdf edit
BRASSEUR RAPHAELLE FFS2652279 F 2000 BEN ABS picture_as_pdf edit
BOSON ALICE FFS2656388 F 2001 BEN ABS picture_as_pdf edit
ITTAH VICTORIA FFS2663467 F 2002 POU ABS picture_as_pdf edit